sensor_id;sensor_type;location;lat;lon;timestamp;temperature;humidity
76104;HTU21D;64831;44.870;37.336;2023-07-28T00:00:03;25.43;75.60
76104;HTU21D;64831;44.870;37.336;2023-07-28T00:02:35;25.37;75.66
76104;HTU21D;64831;44.870;37.336;2023-07-28T00:05:01;25.35;75.79
76104;HTU21D;64831;44.870;37.336;2023-07-28T00:07:27;25.34;75.99
76104;HTU21D;64831;44.870;37.336;2023-07-28T00:09:53;25.32;75.95
76104;HTU21D;64831;44.870;37.336;2023-07-28T00:12:19;25.31;75.88
76104;HTU21D;64831;44.870;37.336;2023-07-28T00:14:45;25.29;75.85
76104;HTU21D;64831;44.870;37.336;2023-07-28T00:17:11;25.27;75.98
76104;HTU21D;64831;44.870;37.336;2023-07-28T00:19:37;25.27;75.99
76104;HTU21D;64831;44.870;37.336;2023-07-28T00:22:03;25.23;76.17
76104;HTU21D;64831;44.870;37.336;2023-07-28T00:24:29;25.21;76.29
76104;HTU21D;64831;44.870;37.336;2023-07-28T00:26:55;25.20;76.47
76104;HTU21D;64831;44.870;37.336;2023-07-28T00:29:21;25.18;76.50
76104;HTU21D;64831;44.870;37.336;2023-07-28T00:31:47;25.14;77.08
76104;HTU21D;64831;44.870;37.336;2023-07-28T00:34:14;25.16;76.99
76104;HTU21D;64831;44.870;37.336;2023-07-28T00:36:40;25.15;77.34
76104;HTU21D;64831;44.870;37.336;2023-07-28T00:39:07;25.15;77.20
76104;HTU21D;64831;44.870;37.336;2023-07-28T00:41:32;25.14;76.92
76104;HTU21D;64831;44.870;37.336;2023-07-28T00:43:58;25.10;76.73
76104;HTU21D;64831;44.870;37.336;2023-07-28T00:46:25;25.07;76.74
76104;HTU21D;64831;44.870;37.336;2023-07-28T00:48:51;25.04;76.59
76104;HTU21D;64831;44.870;37.336;2023-07-28T00:51:17;25.00;76.48
76104;HTU21D;64831;44.870;37.336;2023-07-28T00:53:43;24.95;76.36
76104;HTU21D;64831;44.870;37.336;2023-07-28T00:56:10;24.91;76.22
76104;HTU21D;64831;44.870;37.336;2023-07-28T00:58:36;24.87;76.15
76104;HTU21D;64831;44.870;37.336;2023-07-28T01:01:02;24.83;76.05
76104;HTU21D;64831;44.870;37.336;2023-07-28T01:03:28;24.77;76.04
76104;HTU21D;64831;44.870;37.336;2023-07-28T01:09:12;24.72;75.82
76104;HTU21D;64831;44.870;37.336;2023-07-28T01:12:01;24.68;75.76
76104;HTU21D;64831;44.870;37.336;2023-07-28T01:14:32;24.62;75.73
76104;HTU21D;64831;44.870;37.336;2023-07-28T01:16:58;24.58;75.72
76104;HTU21D;64831;44.870;37.336;2023-07-28T01:19:24;24.55;75.67
76104;HTU21D;64831;44.870;37.336;2023-07-28T01:27:25;24.35;75.57
76104;HTU21D;64831;44.870;37.336;2023-07-28T01:29:52;24.30;75.54
76104;HTU21D;64831;44.870;37.336;2023-07-28T01:32:18;24.27;75.50
76104;HTU21D;64831;44.870;37.336;2023-07-28T01:34:43;24.23;75.45
76104;HTU21D;64831;44.870;37.336;2023-07-28T01:37:09;24.18;75.38
76104;HTU21D;64831;44.870;37.336;2023-07-28T01:39:35;24.14;75.40
76104;HTU21D;64831;44.870;37.336;2023-07-28T01:42:01;24.09;75.47
76104;HTU21D;64831;44.870;37.336;2023-07-28T01:44:27;24.05;75.47
76104;HTU21D;64831;44.870;37.336;2023-07-28T01:46:54;24.03;75.47
76104;HTU21D;64831;44.870;37.336;2023-07-28T01:49:20;23.99;75.50
76104;HTU21D;64831;44.870;37.336;2023-07-28T01:51:46;23.98;75.43
76104;HTU21D;64831;44.870;37.336;2023-07-28T01:54:12;23.95;75.40
76104;HTU21D;64831;44.870;37.336;2023-07-28T01:56:38;23.95;75.38
76104;HTU21D;64831;44.870;37.336;2023-07-28T01:59:04;23.90;75.48
76104;HTU21D;64831;44.870;37.336;2023-07-28T02:01:29;23.89;75.40
76104;HTU21D;64831;44.870;37.336;2023-07-28T02:03:55;23.88;75.42
76104;HTU21D;64831;44.870;37.336;2023-07-28T02:06:22;23.88;75.48
76104;HTU21D;64831;44.870;37.336;2023-07-28T02:08:48;23.89;75.46
76104;HTU21D;64831;44.870;37.336;2023-07-28T02:11:14;23.89;75.44
76104;HTU21D;64831;44.870;37.336;2023-07-28T02:13:40;23.91;75.41
76104;HTU21D;64831;44.870;37.336;2023-07-28T02:16:13;23.92;75.33
76104;HTU21D;64831;44.870;37.336;2023-07-28T02:18:38;23.95;75.26
76104;HTU21D;64831;44.870;37.336;2023-07-28T02:21:04;23.94;75.15
76104;HTU21D;64831;44.870;37.336;2023-07-28T02:23:33;23.92;75.18
76104;HTU21D;64831;44.870;37.336;2023-07-28T02:25:59;23.92;75.43
76104;HTU21D;64831;44.870;37.336;2023-07-28T02:28:25;23.90;75.34
76104;HTU21D;64831;44.870;37.336;2023-07-28T02:30:51;23.89;75.42
76104;HTU21D;64831;44.870;37.336;2023-07-28T02:33:17;23.89;75.52
76104;HTU21D;64831;44.870;37.336;2023-07-28T02:35:43;23.91;75.50
76104;HTU21D;64831;44.870;37.336;2023-07-28T02:38:14;23.92;75.50
76104;HTU21D;64831;44.870;37.336;2023-07-28T02:40:46;23.96;75.58
76104;HTU21D;64831;44.870;37.336;2023-07-28T02:43:13;23.95;75.60
76104;HTU21D;64831;44.870;37.336;2023-07-28T02:45:39;23.97;75.61
76104;HTU21D;64831;44.870;37.336;2023-07-28T02:48:08;24.00;75.69
76104;HTU21D;64831;44.870;37.336;2023-07-28T02:50:34;24.03;75.70
76104;HTU21D;64831;44.870;37.336;2023-07-28T02:53:00;24.06;75.65
76104;HTU21D;64831;44.870;37.336;2023-07-28T02:55:26;24.11;75.48
76104;HTU21D;64831;44.870;37.336;2023-07-28T02:57:52;24.13;75.38
76104;HTU21D;64831;44.870;37.336;2023-07-28T03:00:18;24.16;75.22
76104;HTU21D;64831;44.870;37.336;2023-07-28T03:02:44;24.17;75.24
76104;HTU21D;64831;44.870;37.336;2023-07-28T03:05:31;24.18;75.31
76104;HTU21D;64831;44.870;37.336;2023-07-28T03:08:16;24.21;75.23
76104;HTU21D;64831;44.870;37.336;2023-07-28T03:10:43;24.20;75.16
76104;HTU21D;64831;44.870;37.336;2023-07-28T03:13:09;24.23;75.05
76104;HTU21D;64831;44.870;37.336;2023-07-28T03:15:35;24.25;75.02
76104;HTU21D;64831;44.870;37.336;2023-07-28T03:18:01;24.27;74.96
76104;HTU21D;64831;44.870;37.336;2023-07-28T03:20:27;24.28;74.84
76104;HTU21D;64831;44.870;37.336;2023-07-28T03:22:53;24.31;74.78
76104;HTU21D;64831;44.870;37.336;2023-07-28T03:25:23;24.34;74.74
76104;HTU21D;64831;44.870;37.336;2023-07-28T03:27:49;24.36;74.59
76104;HTU21D;64831;44.870;37.336;2023-07-28T03:30:15;24.41;73.99
76104;HTU21D;64831;44.870;37.336;2023-07-28T03:32:41;24.47;73.48
76104;HTU21D;64831;44.870;37.336;2023-07-28T03:35:08;24.56;73.12
76104;HTU21D;64831;44.870;37.336;2023-07-28T03:37:39;24.63;72.26
76104;HTU21D;64831;44.870;37.336;2023-07-28T03:40:05;24.69;72.00
76104;HTU21D;64831;44.870;37.336;2023-07-28T03:42:42;24.69;71.77
76104;HTU21D;64831;44.870;37.336;2023-07-28T03:45:08;24.70;72.06
76104;HTU21D;64831;44.870;37.336;2023-07-28T03:47:34;24.68;71.87
76104;HTU21D;64831;44.870;37.336;2023-07-28T03:50:00;24.69;71.55
76104;HTU21D;64831;44.870;37.336;2023-07-28T03:52:26;24.70;70.76
76104;HTU21D;64831;44.870;37.336;2023-07-28T03:54:52;24.72;69.32
76104;HTU21D;64831;44.870;37.336;2023-07-28T03:57:21;24.74;67.81
76104;HTU21D;64831;44.870;37.336;2023-07-28T03:59:50;24.77;67.00
76104;HTU21D;64831;44.870;37.336;2023-07-28T04:02:18;24.74;66.56
76104;HTU21D;64831;44.870;37.336;2023-07-28T04:04:44;24.78;67.03
76104;HTU21D;64831;44.870;37.336;2023-07-28T04:07:10;24.82;67.31
76104;HTU21D;64831;44.870;37.336;2023-07-28T04:09:37;24.89;67.35
76104;HTU21D;64831;44.870;37.336;2023-07-28T04:12:03;24.91;67.37
76104;HTU21D;64831;44.870;37.336;2023-07-28T04:14:29;24.94;67.01
76104;HTU21D;64831;44.870;37.336;2023-07-28T04:16:55;24.93;66.49
76104;HTU21D;64831;44.870;37.336;2023-07-28T04:19:21;24.94;66.09
76104;HTU21D;64831;44.870;37.336;2023-07-28T04:21:47;25.00;66.20
76104;HTU21D;64831;44.870;37.336;2023-07-28T04:24:13;25.01;65.52
76104;HTU21D;64831;44.870;37.336;2023-07-28T04:26:44;25.02;65.63
76104;HTU21D;64831;44.870;37.336;2023-07-28T04:29:14;25.02;66.01
76104;HTU21D;64831;44.870;37.336;2023-07-28T04:31:40;25.04;66.36
76104;HTU21D;64831;44.870;37.336;2023-07-28T04:34:11;25.05;66.79
76104;HTU21D;64831;44.870;37.336;2023-07-28T04:37:12;25.05;67.14
76104;HTU21D;64831;44.870;37.336;2023-07-28T04:39:49;25.03;66.30
76104;HTU21D;64831;44.870;37.336;2023-07-28T04:42:19;25.02;65.57
76104;HTU21D;64831;44.870;37.336;2023-07-28T04:44:49;24.98;65.24
76104;HTU21D;64831;44.870;37.336;2023-07-28T04:47:18;24.97;65.57
76104;HTU21D;64831;44.870;37.336;2023-07-28T04:49:44;24.89;65.77
76104;HTU21D;64831;44.870;37.336;2023-07-28T04:52:11;24.85;66.27
76104;HTU21D;64831;44.870;37.336;2023-07-28T04:54:37;24.86;66.78
76104;HTU21D;64831;44.870;37.336;2023-07-28T04:57:03;24.88;67.23
76104;HTU21D;64831;44.870;37.336;2023-07-28T04:59:32;24.92;66.81
76104;HTU21D;64831;44.870;37.336;2023-07-28T05:01:58;24.99;67.03
76104;HTU21D;64831;44.870;37.336;2023-07-28T05:04:24;25.06;67.02
76104;HTU21D;64831;44.870;37.336;2023-07-28T05:06:50;25.12;66.82
76104;HTU21D;64831;44.870;37.336;2023-07-28T05:09:16;25.18;66.53
76104;HTU21D;64831;44.870;37.336;2023-07-28T05:11:43;25.17;66.65
76104;HTU21D;64831;44.870;37.336;2023-07-28T05:14:09;25.16;66.68
76104;HTU21D;64831;44.870;37.336;2023-07-28T05:16:35;25.20;66.65
76104;HTU21D;64831;44.870;37.336;2023-07-28T05:19:12;25.19;66.88
76104;HTU21D;64831;44.870;37.336;2023-07-28T05:21:57;25.20;66.13
76104;HTU21D;64831;44.870;37.336;2023-07-28T05:24:35;25.10;65.20
76104;HTU21D;64831;44.870;37.336;2023-07-28T05:27:02;25.14;64.98
76104;HTU21D;64831;44.870;37.336;2023-07-28T05:29:28;25.15;64.81
76104;HTU21D;64831;44.870;37.336;2023-07-28T05:31:59;25.08;64.75
76104;HTU21D;64831;44.870;37.336;2023-07-28T05:34:32;25.00;65.28
76104;HTU21D;64831;44.870;37.336;2023-07-28T05:36:58;24.98;65.79
76104;HTU21D;64831;44.870;37.336;2023-07-28T05:39:28;24.90;66.85
76104;HTU21D;64831;44.870;37.336;2023-07-28T05:41:54;24.83;66.99
76104;HTU21D;64831;44.870;37.336;2023-07-28T05:44:20;24.77;67.43
76104;HTU21D;64831;44.870;37.336;2023-07-28T05:46:45;24.68;68.14
76104;HTU21D;64831;44.870;37.336;2023-07-28T05:49:15;24.57;67.20
76104;HTU21D;64831;44.870;37.336;2023-07-28T05:51:41;24.54;67.10
76104;HTU21D;64831;44.870;37.336;2023-07-28T05:54:08;24.56;66.93
76104;HTU21D;64831;44.870;37.336;2023-07-28T05:56:34;24.58;64.05
76104;HTU21D;64831;44.870;37.336;2023-07-28T05:59:00;24.85;62.59
76104;HTU21D;64831;44.870;37.336;2023-07-28T06:01:26;25.04;61.29
76104;HTU21D;64831;44.870;37.336;2023-07-28T06:04:15;25.05;58.96
76104;HTU21D;64831;44.870;37.336;2023-07-28T06:06:46;25.13;59.16
76104;HTU21D;64831;44.870;37.336;2023-07-28T06:09:14;25.20;59.86
76104;HTU21D;64831;44.870;37.336;2023-07-28T06:11:41;25.38;60.76
76104;HTU21D;64831;44.870;37.336;2023-07-28T06:14:07;25.91;61.84
76104;HTU21D;64831;44.870;37.336;2023-07-28T06:16:35;26.28;60.62
76104;HTU21D;64831;44.870;37.336;2023-07-28T06:19:01;26.50;61.03
76104;HTU21D;64831;44.870;37.336;2023-07-28T06:21:29;27.10;61.35
76104;HTU21D;64831;44.870;37.336;2023-07-28T06:23:55;27.67;59.37
76104;HTU21D;64831;44.870;37.336;2023-07-28T06:26:23;28.08;57.64
76104;HTU21D;64831;44.870;37.336;2023-07-28T06:28:51;28.60;56.79
76104;HTU21D;64831;44.870;37.336;2023-07-28T06:31:18;29.06;56.31
76104;HTU21D;64831;44.870;37.336;2023-07-28T06:33:44;29.58;54.88
76104;HTU21D;64831;44.870;37.336;2023-07-28T06:36:10;29.98;53.19
76104;HTU21D;64831;44.870;37.336;2023-07-28T06:38:35;30.20;51.18
76104;HTU21D;64831;44.870;37.336;2023-07-28T06:41:02;30.68;51.78
76104;HTU21D;64831;44.870;37.336;2023-07-28T06:43:27;31.01;50.76
76104;HTU21D;64831;44.870;37.336;2023-07-28T06:45:54;30.91;49.76
76104;HTU21D;64831;44.870;37.336;2023-07-28T06:48:20;30.28;49.61
76104;HTU21D;64831;44.870;37.336;2023-07-28T06:50:46;29.82;50.81
76104;HTU21D;64831;44.870;37.336;2023-07-28T06:53:12;28.93;53.04
76104;HTU21D;64831;44.870;37.336;2023-07-28T06:55:38;27.89;55.71
76104;HTU21D;64831;44.870;37.336;2023-07-28T06:58:05;27.09;57.72
76104;HTU21D;64831;44.870;37.336;2023-07-28T07:00:32;26.39;60.01
76104;HTU21D;64831;44.870;37.336;2023-07-28T07:03:00;25.68;62.64
76104;HTU21D;64831;44.870;37.336;2023-07-28T07:05:26;25.22;64.76
76104;HTU21D;64831;44.870;37.336;2023-07-28T07:07:52;25.03;65.30
76104;HTU21D;64831;44.870;37.336;2023-07-28T07:10:20;24.47;68.51
76104;HTU21D;64831;44.870;37.336;2023-07-28T07:12:46;24.10;69.22
76104;HTU21D;64831;44.870;37.336;2023-07-28T07:15:12;23.66;70.62
76104;HTU21D;64831;44.870;37.336;2023-07-28T07:17:38;23.53;71.12
76104;HTU21D;64831;44.870;37.336;2023-07-28T07:20:06;23.52;70.47
76104;HTU21D;64831;44.870;37.336;2023-07-28T07:22:32;23.56;71.14
76104;HTU21D;64831;44.870;37.336;2023-07-28T07:24:59;23.77;70.81
76104;HTU21D;64831;44.870;37.336;2023-07-28T07:27:25;24.23;69.74
76104;HTU21D;64831;44.870;37.336;2023-07-28T07:29:52;24.87;68.30
76104;HTU21D;64831;44.870;37.336;2023-07-28T07:32:18;25.58;67.09
76104;HTU21D;64831;44.870;37.336;2023-07-28T07:34:43;25.91;63.27
76104;HTU21D;64831;44.870;37.336;2023-07-28T07:37:09;25.81;61.19
76104;HTU21D;64831;44.870;37.336;2023-07-28T07:39:35;25.44;60.43
76104;HTU21D;64831;44.870;37.336;2023-07-28T07:42:02;25.13;60.65
76104;HTU21D;64831;44.870;37.336;2023-07-28T07:44:28;24.79;61.56
76104;HTU21D;64831;44.870;37.336;2023-07-28T07:46:55;24.45;62.60
76104;HTU21D;64831;44.870;37.336;2023-07-28T07:49:21;24.08;63.72
76104;HTU21D;64831;44.870;37.336;2023-07-28T07:51:48;23.80;64.63
76104;HTU21D;64831;44.870;37.336;2023-07-28T07:54:14;23.61;65.27
76104;HTU21D;64831;44.870;37.336;2023-07-28T07:56:44;23.54;65.28
76104;HTU21D;64831;44.870;37.336;2023-07-28T07:59:12;23.55;65.19
76104;HTU21D;64831;44.870;37.336;2023-07-28T08:01:38;23.55;64.63
76104;HTU21D;64831;44.870;37.336;2023-07-28T08:04:04;23.61;64.59
76104;HTU21D;64831;44.870;37.336;2023-07-28T08:06:30;23.73;64.00
76104;HTU21D;64831;44.870;37.336;2023-07-28T08:08:56;23.77;63.33
76104;HTU21D;64831;44.870;37.336;2023-07-28T08:11:24;23.75;63.18
76104;HTU21D;64831;44.870;37.336;2023-07-28T08:13:50;23.79;63.56
76104;HTU21D;64831;44.870;37.336;2023-07-28T08:16:16;23.89;63.39
76104;HTU21D;64831;44.870;37.336;2023-07-28T08:18:41;23.91;63.42
76104;HTU21D;64831;44.870;37.336;2023-07-28T08:21:07;24.00;63.97
76104;HTU21D;64831;44.870;37.336;2023-07-28T08:23:34;24.12;63.58
76104;HTU21D;64831;44.870;37.336;2023-07-28T08:25:59;24.05;63.14
76104;HTU21D;64831;44.870;37.336;2023-07-28T08:28:25;23.92;63.14
76104;HTU21D;64831;44.870;37.336;2023-07-28T08:31:00;23.66;63.63
76104;HTU21D;64831;44.870;37.336;2023-07-28T08:33:26;23.62;64.27
76104;HTU21D;64831;44.870;37.336;2023-07-28T08:35:52;23.71;63.76
76104;HTU21D;64831;44.870;37.336;2023-07-28T08:38:18;23.88;63.31
76104;HTU21D;64831;44.870;37.336;2023-07-28T08:40:44;23.82;62.34
76104;HTU21D;64831;44.870;37.336;2023-07-28T08:43:11;23.95;62.41
76104;HTU21D;64831;44.870;37.336;2023-07-28T08:45:37;23.98;61.70
76104;HTU21D;64831;44.870;37.336;2023-07-28T08:48:04;23.98;61.25
76104;HTU21D;64831;44.870;37.336;2023-07-28T08:50:29;24.09;61.53
76104;HTU21D;64831;44.870;37.336;2023-07-28T08:52:58;24.24;61.05
76104;HTU21D;64831;44.870;37.336;2023-07-28T08:55:25;24.13;60.81
76104;HTU21D;64831;44.870;37.336;2023-07-28T08:57:51;23.96;60.65
76104;HTU21D;64831;44.870;37.336;2023-07-28T09:00:17;24.03;60.72
76104;HTU21D;64831;44.870;37.336;2023-07-28T09:02:43;24.09;61.01
76104;HTU21D;64831;44.870;37.336;2023-07-28T09:05:20;24.38;61.06
76104;HTU21D;64831;44.870;37.336;2023-07-28T09:07:47;24.64;59.78
76104;HTU21D;64831;44.870;37.336;2023-07-28T09:10:15;24.94;59.66
76104;HTU21D;64831;44.870;37.336;2023-07-28T09:12:47;25.48;59.61
76104;HTU21D;64831;44.870;37.336;2023-07-28T09:15:13;26.18;57.90
76104;HTU21D;64831;44.870;37.336;2023-07-28T09:17:43;26.76;55.58
76104;HTU21D;64831;44.870;37.336;2023-07-28T09:20:14;26.99;54.32
76104;HTU21D;64831;44.870;37.336;2023-07-28T09:22:41;27.07;52.65
76104;HTU21D;64831;44.870;37.336;2023-07-28T09:25:16;27.23;50.95
76104;HTU21D;64831;44.870;37.336;2023-07-28T09:27:52;26.94;51.60
76104;HTU21D;64831;44.870;37.336;2023-07-28T09:30:18;26.92;51.71
76104;HTU21D;64831;44.870;37.336;2023-07-28T09:32:49;27.09;51.23
76104;HTU21D;64831;44.870;37.336;2023-07-28T09:35:15;27.06;50.18
76104;HTU21D;64831;44.870;37.336;2023-07-28T09:37:43;26.60;50.07
76104;HTU21D;64831;44.870;37.336;2023-07-28T09:40:12;26.62;51.36
76104;HTU21D;64831;44.870;37.336;2023-07-28T09:42:42;26.93;51.44
76104;HTU21D;64831;44.870;37.336;2023-07-28T09:45:09;27.02;50.53
76104;HTU21D;64831;44.870;37.336;2023-07-28T09:47:37;26.77;50.72
76104;HTU21D;64831;44.870;37.336;2023-07-28T09:50:08;26.93;51.01
76104;HTU21D;64831;44.870;37.336;2023-07-28T09:52:37;27.11;50.85
76104;HTU21D;64831;44.870;37.336;2023-07-28T09:55:08;27.00;50.72
76104;HTU21D;64831;44.870;37.336;2023-07-28T09:57:39;26.91;50.84
76104;HTU21D;64831;44.870;37.336;2023-07-28T10:00:08;27.02;50.87
76104;HTU21D;64831;44.870;37.336;2023-07-28T10:02:38;27.30;49.85
76104;HTU21D;64831;44.870;37.336;2023-07-28T10:05:05;27.10;48.50
76104;HTU21D;64831;44.870;37.336;2023-07-28T10:07:34;26.98;48.51
76104;HTU21D;64831;44.870;37.336;2023-07-28T10:10:04;26.87;48.79
76104;HTU21D;64831;44.870;37.336;2023-07-28T10:12:53;26.91;48.98
76104;HTU21D;64831;44.870;37.336;2023-07-28T10:15:22;26.81;49.53
76104;HTU21D;64831;44.870;37.336;2023-07-28T10:17:57;26.61;49.85
76104;HTU21D;64831;44.870;37.336;2023-07-28T10:20:38;26.46;50.27
76104;HTU21D;64831;44.870;37.336;2023-07-28T10:25:34;26.18;50.40
76104;HTU21D;64831;44.870;37.336;2023-07-28T10:28:01;26.15;50.63
76104;HTU21D;64831;44.870;37.336;2023-07-28T10:30:35;26.22;50.88
76104;HTU21D;64831;44.870;37.336;2023-07-28T10:33:02;26.15;50.96
76104;HTU21D;64831;44.870;37.336;2023-07-28T10:35:28;26.24;50.98
76104;HTU21D;64831;44.870;37.336;2023-07-28T10:37:57;26.42;50.78
76104;HTU21D;64831;44.870;37.336;2023-07-28T10:40:23;26.49;50.18
76104;HTU21D;64831;44.870;37.336;2023-07-28T10:42:51;26.66;50.11
76104;HTU21D;64831;44.870;37.336;2023-07-28T10:45:24;26.69;49.79
76104;HTU21D;64831;44.870;37.336;2023-07-28T10:47:55;26.75;49.38
76104;HTU21D;64831;44.870;37.336;2023-07-28T10:50:22;26.72;49.48
76104;HTU21D;64831;44.870;37.336;2023-07-28T10:52:49;26.41;49.20
76104;HTU21D;64831;44.870;37.336;2023-07-28T10:55:27;26.10;49.82
76104;HTU21D;64831;44.870;37.336;2023-07-28T10:57:54;25.86;50.64
76104;HTU21D;64831;44.870;37.336;2023-07-28T11:00:22;25.90;50.80
76104;HTU21D;64831;44.870;37.336;2023-07-28T11:02:52;25.84;51.25
76104;HTU21D;64831;44.870;37.336;2023-07-28T11:05:24;25.97;50.85
76104;HTU21D;64831;44.870;37.336;2023-07-28T11:07:54;25.94;51.29
76104;HTU21D;64831;44.870;37.336;2023-07-28T11:10:20;25.98;51.63
76104;HTU21D;64831;44.870;37.336;2023-07-28T11:12:51;26.02;51.34
76104;HTU21D;64831;44.870;37.336;2023-07-28T11:15:18;26.09;51.52
76104;HTU21D;64831;44.870;37.336;2023-07-28T11:17:49;26.10;50.85
76104;HTU21D;64831;44.870;37.336;2023-07-28T11:20:19;25.88;51.27
76104;HTU21D;64831;44.870;37.336;2023-07-28T11:25:19;25.77;52.07
76104;HTU21D;64831;44.870;37.336;2023-07-28T11:27:46;25.71;51.85
76104;HTU21D;64831;44.870;37.336;2023-07-28T11:30:14;25.69;51.73
76104;HTU21D;64831;44.870;37.336;2023-07-28T11:32:43;25.59;52.02
76104;HTU21D;64831;44.870;37.336;2023-07-28T11:35:11;25.49;52.59
76104;HTU21D;64831;44.870;37.336;2023-07-28T11:37:42;25.54;52.68
76104;HTU21D;64831;44.870;37.336;2023-07-28T11:40:10;25.76;52.67
76104;HTU21D;64831;44.870;37.336;2023-07-28T11:42:43;25.91;52.14
76104;HTU21D;64831;44.870;37.336;2023-07-28T11:45:10;25.80;52.00
76104;HTU21D;64831;44.870;37.336;2023-07-28T11:47:37;25.82;51.56
76104;HTU21D;64831;44.870;37.336;2023-07-28T11:50:04;25.90;51.11
76104;HTU21D;64831;44.870;37.336;2023-07-28T11:52:34;26.05;50.59
76104;HTU21D;64831;44.870;37.336;2023-07-28T11:55:02;26.15;50.33
76104;HTU21D;64831;44.870;37.336;2023-07-28T11:57:31;26.12;50.14
76104;HTU21D;64831;44.870;37.336;2023-07-28T12:00:01;26.16;50.27
76104;HTU21D;64831;44.870;37.336;2023-07-28T12:02:31;26.04;50.42
76104;HTU21D;64831;44.870;37.336;2023-07-28T12:04:59;25.90;50.88
76104;HTU21D;64831;44.870;37.336;2023-07-28T12:07:32;25.93;51.09
76104;HTU21D;64831;44.870;37.336;2023-07-28T12:10:05;25.95;51.05
76104;HTU21D;64831;44.870;37.336;2023-07-28T12:12:44;25.99;50.76
76104;HTU21D;64831;44.870;37.336;2023-07-28T12:15:29;25.83;50.89
76104;HTU21D;64831;44.870;37.336;2023-07-28T12:18:04;25.65;51.80
76104;HTU21D;64831;44.870;37.336;2023-07-28T12:20:41;25.76;51.54
76104;HTU21D;64831;44.870;37.336;2023-07-28T12:23:08;25.95;51.77
76104;HTU21D;64831;44.870;37.336;2023-07-28T12:25:37;26.04;51.30
76104;HTU21D;64831;44.870;37.336;2023-07-28T12:28:03;26.05;51.09
76104;HTU21D;64831;44.870;37.336;2023-07-28T12:30:30;25.98;51.02
76104;HTU21D;64831;44.870;37.336;2023-07-28T12:32:56;26.04;51.24
76104;HTU21D;64831;44.870;37.336;2023-07-28T12:35:23;26.06;51.10
76104;HTU21D;64831;44.870;37.336;2023-07-28T12:37:50;25.96;50.70
76104;HTU21D;64831;44.870;37.336;2023-07-28T12:40:18;25.71;51.16
76104;HTU21D;64831;44.870;37.336;2023-07-28T12:42:47;25.78;51.56
76104;HTU21D;64831;44.870;37.336;2023-07-28T12:45:14;25.84;51.12
76104;HTU21D;64831;44.870;37.336;2023-07-28T12:47:42;25.86;50.72
76104;HTU21D;64831;44.870;37.336;2023-07-28T12:50:09;25.73;50.47
76104;HTU21D;64831;44.870;37.336;2023-07-28T12:52:36;25.64;50.36
76104;HTU21D;64831;44.870;37.336;2023-07-28T12:55:02;25.57;50.66
76104;HTU21D;64831;44.870;37.336;2023-07-28T12:57:28;25.53;50.91
76104;HTU21D;64831;44.870;37.336;2023-07-28T12:59:54;25.37;51.33
76104;HTU21D;64831;44.870;37.336;2023-07-28T13:02:20;25.21;51.23
76104;HTU21D;64831;44.870;37.336;2023-07-28T13:04:46;25.21;51.50
76104;HTU21D;64831;44.870;37.336;2023-07-28T13:07:13;25.18;51.76
76104;HTU21D;64831;44.870;37.336;2023-07-28T13:09:40;25.07;52.10
76104;HTU21D;64831;44.870;37.336;2023-07-28T13:12:07;25.13;52.29
76104;HTU21D;64831;44.870;37.336;2023-07-28T13:14:34;25.13;52.35
76104;HTU21D;64831;44.870;37.336;2023-07-28T13:17:00;25.12;52.46
76104;HTU21D;64831;44.870;37.336;2023-07-28T13:19:26;25.17;52.66
76104;HTU21D;64831;44.870;37.336;2023-07-28T13:21:51;25.18;52.96
76104;HTU21D;64831;44.870;37.336;2023-07-28T13:24:18;25.19;53.01
76104;HTU21D;64831;44.870;37.336;2023-07-28T13:26:44;25.16;53.04
76104;HTU21D;64831;44.870;37.336;2023-07-28T13:29:10;25.17;53.18
76104;HTU21D;64831;44.870;37.336;2023-07-28T13:31:36;25.08;53.59
76104;HTU21D;64831;44.870;37.336;2023-07-28T13:34:01;24.91;54.20
76104;HTU21D;64831;44.870;37.336;2023-07-28T13:36:28;24.65;55.13
76104;HTU21D;64831;44.870;37.336;2023-07-28T13:38:54;24.48;55.69
76104;HTU21D;64831;44.870;37.336;2023-07-28T13:41:20;24.32;56.19
76104;HTU21D;64831;44.870;37.336;2023-07-28T13:43:46;24.32;56.14
76104;HTU21D;64831;44.870;37.336;2023-07-28T13:46:12;24.31;56.05
76104;HTU21D;64831;44.870;37.336;2023-07-28T13:48:38;24.36;55.76
76104;HTU21D;64831;44.870;37.336;2023-07-28T13:51:05;24.36;55.38
76104;HTU21D;64831;44.870;37.336;2023-07-28T13:53:31;24.42;55.06
76104;HTU21D;64831;44.870;37.336;2023-07-28T13:55:57;24.44;57.58
76104;HTU21D;64831;44.870;37.336;2023-07-28T13:58:23;24.40;58.28
76104;HTU21D;64831;44.870;37.336;2023-07-28T14:00:49;24.39;57.98
76104;HTU21D;64831;44.870;37.336;2023-07-28T14:03:15;24.43;57.85
76104;HTU21D;64831;44.870;37.336;2023-07-28T14:05:42;24.50;57.67
76104;HTU21D;64831;44.870;37.336;2023-07-28T14:08:08;24.46;58.00
76104;HTU21D;64831;44.870;37.336;2023-07-28T14:10:37;24.44;58.23
76104;HTU21D;64831;44.870;37.336;2023-07-28T14:13:04;24.42;58.52
76104;HTU21D;64831;44.870;37.336;2023-07-28T14:15:30;24.39;58.92
76104;HTU21D;64831;44.870;37.336;2023-07-28T14:17:56;24.47;58.61
76104;HTU21D;64831;44.870;37.336;2023-07-28T14:20:22;24.55;58.03
76104;HTU21D;64831;44.870;37.336;2023-07-28T14:22:48;24.58;56.95
76104;HTU21D;64831;44.870;37.336;2023-07-28T14:25:14;24.59;56.45
76104;HTU21D;64831;44.870;37.336;2023-07-28T14:27:40;24.62;56.52
76104;HTU21D;64831;44.870;37.336;2023-07-28T14:30:06;24.63;55.99
76104;HTU21D;64831;44.870;37.336;2023-07-28T14:32:32;24.62;55.63
76104;HTU21D;64831;44.870;37.336;2023-07-28T14:34:58;24.60;55.60
76104;HTU21D;64831;44.870;37.336;2023-07-28T14:37:24;24.61;55.62
76104;HTU21D;64831;44.870;37.336;2023-07-28T14:39:50;24.61;55.78
76104;HTU21D;64831;44.870;37.336;2023-07-28T14:42:16;24.53;56.22
76104;HTU21D;64831;44.870;37.336;2023-07-28T14:44:42;24.53;56.22
76104;HTU21D;64831;44.870;37.336;2023-07-28T14:47:08;24.49;56.58
76104;HTU21D;64831;44.870;37.336;2023-07-28T14:49:34;24.50;56.66
76104;HTU21D;64831;44.870;37.336;2023-07-28T14:52:00;24.43;56.70
76104;HTU21D;64831;44.870;37.336;2023-07-28T14:54:26;24.47;56.48
76104;HTU21D;64831;44.870;37.336;2023-07-28T14:56:52;24.39;56.50
76104;HTU21D;64831;44.870;37.336;2023-07-28T14:59:17;24.40;56.23
76104;HTU21D;64831;44.870;37.336;2023-07-28T15:01:44;24.36;55.78
76104;HTU21D;64831;44.870;37.336;2023-07-28T15:04:09;24.27;55.52
76104;HTU21D;64831;44.870;37.336;2023-07-28T15:06:37;24.21;55.52
76104;HTU21D;64831;44.870;37.336;2023-07-28T15:09:02;24.16;55.75
76104;HTU21D;64831;44.870;37.336;2023-07-28T15:11:28;24.14;55.78
76104;HTU21D;64831;44.870;37.336;2023-07-28T15:13:54;24.14;55.92
76104;HTU21D;64831;44.870;37.336;2023-07-28T15:16:20;24.17;55.75
76104;HTU21D;64831;44.870;37.336;2023-07-28T15:18:46;24.19;55.84